Wasagaming, Canada
Current Conditions -  °F | °C
As of 9:00 PM on Friday 28 Nov 2014 (Local Time) from CYDN Reporting Station
Light Snow Light Snow  
Wind Chill: -10°   Ceiling: 6500
Heat Index:   Visibility: 7mi
Dew Point:   Wind: 14mph
Humidity: 85%   Direction: 90°E
Pressure: 29.66"   Gusts: NA
Location:  50.65°N, 99.97°W
Report Text: CYDN 290300Z AUTO 09012KT 7SM -SN OVC065 M14/M16 A2966 RMK PRESFR SLP071
Loading
Personal Weather Stations






























Interactive Weather Map New forecast layout! Learn more

10-Day Weather Forecast

Advertisements
Track Severe Weather on mobile